Port Saint Joe, Florida
Current Conditions -  °F | °C
As of 12:53 PM on Saturday 20 Dec 2014 (Local Time) from KAAF Reporting Station
Overcast Overcast  
Wind Chill: 65°   Ceiling: 2900
Heat Index: 65°   Visibility: 10mi
Dew Point: 51°   Wind: 8mph
Humidity: 61%   Direction: 80°E
Pressure: 30.06"   Gusts: NA
Location:  29.81°N, 85.3°W
Report Text: KAAF 201853Z AUTO 08007KT 10SM BKN029 OVC055 18/11 A3006 RMK AO2 SLP177 T01830106 TSNO
Loading
Personal Weather Stations






























Interactive Weather Map New forecast layout! Learn more

10-Day Weather Forecast

Advertisements
Track Severe Weather on mobile